sensor_id;sensor_type;location;lat;lon;timestamp;pressure;altitude;pressure_sealevel;temperature;humidity
60611;BME280;46439;51.164;13.572;2022-08-21T00:01:07;100002.39;;;20.65;99.89
60611;BME280;46439;51.164;13.572;2022-08-21T00:03:38;99997.19;;;20.68;99.97
60611;BME280;46439;51.164;13.572;2022-08-21T00:06:08;99997.98;;;20.71;100.00
60611;BME280;46439;51.164;13.572;2022-08-21T00:08:37;99996.61;;;20.72;100.00
60611;BME280;46439;51.164;13.572;2022-08-21T00:11:10;99997.60;;;20.72;100.00
60611;BME280;46439;51.164;13.572;2022-08-21T00:13:39;99998.95;;;20.68;100.00
60611;BME280;46439;51.164;13.572;2022-08-21T00:16:08;99998.68;;;20.61;99.88
60611;BME280;46439;51.164;13.572;2022-08-21T00:18:38;99999.50;;;20.57;99.80
60611;BME280;46439;51.164;13.572;2022-08-21T00:21:07;99999.11;;;20.51;99.73
60611;BME280;46439;51.164;13.572;2022-08-21T00:23:36;99998.09;;;20.43;99.52
60611;BME280;46439;51.164;13.572;2022-08-21T00:26:05;99997.33;;;20.43;99.55
60611;BME280;46439;51.164;13.572;2022-08-21T00:28:33;99997.93;;;20.43;99.53
60611;BME280;46439;51.164;13.572;2022-08-21T00:31:02;99999.77;;;20.44;99.75
60611;BME280;46439;51.164;13.572;2022-08-21T00:33:33;99999.70;;;20.49;99.89
60611;BME280;46439;51.164;13.572;2022-08-21T00:36:02;99998.61;;;20.53;100.00
60611;BME280;46439;51.164;13.572;2022-08-21T00:38:32;99999.13;;;20.54;99.99
60611;BME280;46439;51.164;13.572;2022-08-21T00:41:03;99997.98;;;20.54;100.00
60611;BME280;46439;51.164;13.572;2022-08-21T00:43:34;99999.46;;;20.57;100.00
60611;BME280;46439;51.164;13.572;2022-08-21T00:46:03;99997.48;;;20.59;100.00
60611;BME280;46439;51.164;13.572;2022-08-21T00:48:32;100001.84;;;20.58;100.00
60611;BME280;46439;51.164;13.572;2022-08-21T00:51:05;100003.58;;;20.51;99.94
60611;BME280;46439;51.164;13.572;2022-08-21T00:53:37;100004.45;;;20.46;99.84
60611;BME280;46439;51.164;13.572;2022-08-21T00:56:08;100007.35;;;20.27;99.34
60611;BME280;46439;51.164;13.572;2022-08-21T00:58:39;100009.21;;;20.19;99.03
60611;BME280;46439;51.164;13.572;2022-08-21T01:01:08;100009.58;;;20.09;98.78
60611;BME280;46439;51.164;13.572;2022-08-21T01:03:37;100007.79;;;20.02;98.82
60611;BME280;46439;51.164;13.572;2022-08-21T01:06:06;100011.33;;;19.98;98.87
60611;BME280;46439;51.164;13.572;2022-08-21T01:08:36;100011.13;;;19.83;98.51
60611;BME280;46439;51.164;13.572;2022-08-21T01:11:05;100009.19;;;19.71;98.17
60611;BME280;46439;51.164;13.572;2022-08-21T01:13:36;100008.09;;;19.64;98.19
60611;BME280;46439;51.164;13.572;2022-08-21T01:16:10;100007.50;;;19.60;98.27
60611;BME280;46439;51.164;13.572;2022-08-21T01:18:39;100006.58;;;19.63;98.50
60611;BME280;46439;51.164;13.572;2022-08-21T01:21:12;100008.58;;;19.67;98.78
60611;BME280;46439;51.164;13.572;2022-08-21T01:23:43;100009.09;;;19.64;98.80
60611;BME280;46439;51.164;13.572;2022-08-21T01:26:13;100009.59;;;19.65;98.88
60611;BME280;46439;51.164;13.572;2022-08-21T01:28:49;100001.70;;;19.67;99.01
60611;BME280;46439;51.164;13.572;2022-08-21T01:31:21;99999.36;;;19.74;99.39
60611;BME280;46439;51.164;13.572;2022-08-21T01:33:49;100001.77;;;19.83;99.60
60611;BME280;46439;51.164;13.572;2022-08-21T01:36:17;100005.63;;;19.88;99.94
60611;BME280;46439;51.164;13.572;2022-08-21T01:38:45;100006.19;;;19.92;99.99
60611;BME280;46439;51.164;13.572;2022-08-21T01:41:15;100011.30;;;19.97;100.00
60611;BME280;46439;51.164;13.572;2022-08-21T01:43:43;100013.64;;;20.01;100.00
60611;BME280;46439;51.164;13.572;2022-08-21T01:46:13;100014.38;;;20.07;100.00
60611;BME280;46439;51.164;13.572;2022-08-21T01:48:42;100012.23;;;20.12;100.00
60611;BME280;46439;51.164;13.572;2022-08-21T01:51:10;100011.83;;;20.19;100.00
60611;BME280;46439;51.164;13.572;2022-08-21T01:53:40;100013.35;;;20.23;100.00
60611;BME280;46439;51.164;13.572;2022-08-21T01:56:12;100015.04;;;20.27;100.00
60611;BME280;46439;51.164;13.572;2022-08-21T01:58:42;100019.58;;;20.30;100.00
60611;BME280;46439;51.164;13.572;2022-08-21T02:01:12;100014.76;;;20.32;100.00
60611;BME280;46439;51.164;13.572;2022-08-21T02:03:40;100015.33;;;20.36;100.00
60611;BME280;46439;51.164;13.572;2022-08-21T02:06:14;100015.05;;;20.39;100.00
60611;BME280;46439;51.164;13.572;2022-08-21T02:08:42;100011.45;;;20.42;100.00
60611;BME280;46439;51.164;13.572;2022-08-21T02:11:11;100015.40;;;20.45;100.00
60611;BME280;46439;51.164;13.572;2022-08-21T02:13:40;100014.05;;;20.46;100.00
60611;BME280;46439;51.164;13.572;2022-08-21T02:16:08;100007.98;;;20.48;100.00
60611;BME280;46439;51.164;13.572;2022-08-21T02:18:37;100004.14;;;20.49;100.00
60611;BME280;46439;51.164;13.572;2022-08-21T02:21:06;100001.73;;;20.50;100.00
60611;BME280;46439;51.164;13.572;2022-08-21T02:23:34;100001.59;;;20.51;100.00
60611;BME280;46439;51.164;13.572;2022-08-21T02:26:05;100001.34;;;20.52;100.00
60611;BME280;46439;51.164;13.572;2022-08-21T02:28:35;100000.73;;;20.52;100.00
60611;BME280;46439;51.164;13.572;2022-08-21T02:31:05;100001.27;;;20.51;100.00
60611;BME280;46439;51.164;13.572;2022-08-21T02:33:33;99996.88;;;20.51;100.00
60611;BME280;46439;51.164;13.572;2022-08-21T02:36:03;99992.00;;;20.51;100.00
60611;BME280;46439;51.164;13.572;2022-08-21T02:38:35;99992.94;;;20.51;100.00
60611;BME280;46439;51.164;13.572;2022-08-21T02:41:09;99996.21;;;20.51;100.00
60611;BME280;46439;51.164;13.572;2022-08-21T02:43:37;99993.11;;;20.52;100.00
60611;BME280;46439;51.164;13.572;2022-08-21T02:46:10;99986.95;;;20.51;100.00
60611;BME280;46439;51.164;13.572;2022-08-21T02:48:40;99984.69;;;20.53;100.00
60611;BME280;46439;51.164;13.572;2022-08-21T02:51:13;99980.05;;;20.54;100.00
60611;BME280;46439;51.164;13.572;2022-08-21T02:53:43;99981.73;;;20.56;100.00
60611;BME280;46439;51.164;13.572;2022-08-21T02:56:14;99983.40;;;20.58;100.00
60611;BME280;46439;51.164;13.572;2022-08-21T02:58:46;99984.51;;;20.58;100.00
60611;BME280;46439;51.164;13.572;2022-08-21T03:01:15;99984.48;;;20.57;100.00
60611;BME280;46439;51.164;13.572;2022-08-21T03:03:45;99980.67;;;20.55;100.00
60611;BME280;46439;51.164;13.572;2022-08-21T03:06:17;99980.84;;;20.55;100.00
60611;BME280;46439;51.164;13.572;2022-08-21T03:08:46;99980.77;;;20.54;100.00
60611;BME280;46439;51.164;13.572;2022-08-21T03:11:15;99982.30;;;20.52;100.00
60611;BME280;46439;51.164;13.572;2022-08-21T03:13:44;99986.88;;;20.51;100.00
60611;BME280;46439;51.164;13.572;2022-08-21T03:16:12;99984.13;;;20.49;100.00
60611;BME280;46439;51.164;13.572;2022-08-21T03:18:40;99985.44;;;20.49;100.00
60611;BME280;46439;51.164;13.572;2022-08-21T03:21:09;99988.82;;;20.51;100.00
60611;BME280;46439;51.164;13.572;2022-08-21T03:23:37;99987.95;;;20.52;100.00
60611;BME280;46439;51.164;13.572;2022-08-21T03:26:10;99986.71;;;20.50;100.00
60611;BME280;46439;51.164;13.572;2022-08-21T03:28:39;99993.50;;;20.47;100.00
60611;BME280;46439;51.164;13.572;2022-08-21T03:31:07;99995.84;;;20.46;100.00
60611;BME280;46439;51.164;13.572;2022-08-21T03:33:36;99999.95;;;20.40;100.00
60611;BME280;46439;51.164;13.572;2022-08-21T03:36:07;100002.39;;;20.33;100.00
60611;BME280;46439;51.164;13.572;2022-08-21T03:38:37;100000.59;;;20.34;100.00
60611;BME280;46439;51.164;13.572;2022-08-21T03:41:06;99999.06;;;20.37;100.00
60611;BME280;46439;51.164;13.572;2022-08-21T03:43:35;100004.86;;;20.39;100.00
60611;BME280;46439;51.164;13.572;2022-08-21T03:46:05;100004.98;;;20.39;100.00
60611;BME280;46439;51.164;13.572;2022-08-21T03:48:35;100001.55;;;20.41;100.00
60611;BME280;46439;51.164;13.572;2022-08-21T03:51:05;100000.13;;;20.43;100.00
60611;BME280;46439;51.164;13.572;2022-08-21T03:53:34;99998.98;;;20.46;100.00
60611;BME280;46439;51.164;13.572;2022-08-21T03:56:03;99998.41;;;20.48;100.00
60611;BME280;46439;51.164;13.572;2022-08-21T03:58:32;100001.34;;;20.52;100.00
60611;BME280;46439;51.164;13.572;2022-08-21T04:01:03;100004.57;;;20.54;100.00
60611;BME280;46439;51.164;13.572;2022-08-21T04:03:33;100005.66;;;20.57;100.00
60611;BME280;46439;51.164;13.572;2022-08-21T04:06:02;100007.02;;;20.59;100.00
60611;BME280;46439;51.164;13.572;2022-08-21T04:08:31;100007.20;;;20.60;100.00
60611;BME280;46439;51.164;13.572;2022-08-21T04:11:00;100008.17;;;20.59;100.00
60611;BME280;46439;51.164;13.572;2022-08-21T04:13:29;100006.14;;;20.59;100.00
60611;BME280;46439;51.164;13.572;2022-08-21T04:15:57;100012.88;;;20.59;100.00
60611;BME280;46439;51.164;13.572;2022-08-21T04:18:26;100011.75;;;20.60;100.00
60611;BME280;46439;51.164;13.572;2022-08-21T04:20:56;100011.40;;;20.62;100.00
60611;BME280;46439;51.164;13.572;2022-08-21T04:23:26;100013.23;;;20.63;100.00
60611;BME280;46439;51.164;13.572;2022-08-21T04:25:55;100015.19;;;20.63;100.00
60611;BME280;46439;51.164;13.572;2022-08-21T04:28:25;100017.92;;;20.63;100.00
60611;BME280;46439;51.164;13.572;2022-08-21T04:30:55;100018.14;;;20.65;100.00
60611;BME280;46439;51.164;13.572;2022-08-21T04:33:24;100017.83;;;20.65;100.00
60611;BME280;46439;51.164;13.572;2022-08-21T04:35:53;100018.36;;;20.67;100.00
60611;BME280;46439;51.164;13.572;2022-08-21T04:38:22;100020.16;;;20.67;100.00
60611;BME280;46439;51.164;13.572;2022-08-21T04:40:51;100023.28;;;20.67;100.00
60611;BME280;46439;51.164;13.572;2022-08-21T04:43:20;100027.45;;;20.64;100.00
60611;BME280;46439;51.164;13.572;2022-08-21T04:45:52;100032.02;;;20.60;100.00
60611;BME280;46439;51.164;13.572;2022-08-21T04:48:22;100033.77;;;20.59;100.00
60611;BME280;46439;51.164;13.572;2022-08-21T04:50:56;100032.73;;;20.55;100.00
60611;BME280;46439;51.164;13.572;2022-08-21T04:53:28;100029.78;;;20.51;100.00
60611;BME280;46439;51.164;13.572;2022-08-21T04:56:03;100030.91;;;20.50;100.00
60611;BME280;46439;51.164;13.572;2022-08-21T04:58:33;100029.14;;;20.46;100.00
60611;BME280;46439;51.164;13.572;2022-08-21T05:01:03;100029.52;;;20.44;100.00
60611;BME280;46439;51.164;13.572;2022-08-21T05:03:34;100028.20;;;20.44;100.00
60611;BME280;46439;51.164;13.572;2022-08-21T05:06:07;100032.42;;;20.44;100.00
60611;BME280;46439;51.164;13.572;2022-08-21T05:08:38;100037.52;;;20.43;100.00
60611;BME280;46439;51.164;13.572;2022-08-21T05:11:08;100039.73;;;20.39;100.00
60611;BME280;46439;51.164;13.572;2022-08-21T05:13:36;100041.83;;;20.32;100.00
60611;BME280;46439;51.164;13.572;2022-08-21T05:16:05;100048.54;;;20.28;100.00
60611;BME280;46439;51.164;13.572;2022-08-21T05:18:34;100055.98;;;20.26;100.00
60611;BME280;46439;51.164;13.572;2022-08-21T05:21:03;100064.45;;;20.23;100.00
60611;BME280;46439;51.164;13.572;2022-08-21T05:23:32;100064.22;;;20.20;100.00
60611;BME280;46439;51.164;13.572;2022-08-21T05:26:01;100065.55;;;20.19;100.00
60611;BME280;46439;51.164;13.572;2022-08-21T05:28:29;100063.17;;;20.18;100.00
60611;BME280;46439;51.164;13.572;2022-08-21T05:30:58;100057.29;;;20.17;100.00
60611;BME280;46439;51.164;13.572;2022-08-21T05:33:26;100056.33;;;20.11;100.00
60611;BME280;46439;51.164;13.572;2022-08-21T05:35:55;100055.88;;;20.08;100.00
60611;BME280;46439;51.164;13.572;2022-08-21T05:38:24;100053.62;;;20.07;100.00
60611;BME280;46439;51.164;13.572;2022-08-21T05:40:55;100059.34;;;20.10;100.00
60611;BME280;46439;51.164;13.572;2022-08-21T05:43:23;100059.63;;;20.09;100.00
60611;BME280;46439;51.164;13.572;2022-08-21T05:45:52;100068.02;;;20.06;100.00
60611;BME280;46439;51.164;13.572;2022-08-21T05:48:23;100067.02;;;20.03;100.00
60611;BME280;46439;51.164;13.572;2022-08-21T05:50:53;100057.77;;;20.07;100.00
60611;BME280;46439;51.164;13.572;2022-08-21T05:53:23;100056.73;;;20.09;100.00
60611;BME280;46439;51.164;13.572;2022-08-21T05:55:53;100054.21;;;20.09;100.00
60611;BME280;46439;51.164;13.572;2022-08-21T05:58:22;100058.91;;;20.11;100.00
60611;BME280;46439;51.164;13.572;2022-08-21T06:00:54;100063.20;;;20.12;100.00
60611;BME280;46439;51.164;13.572;2022-08-21T06:03:24;100060.09;;;20.15;100.00
60611;BME280;46439;51.164;13.572;2022-08-21T06:05:53;100063.05;;;20.20;100.00
60611;BME280;46439;51.164;13.572;2022-08-21T06:08:23;100058.23;;;20.22;100.00
60611;BME280;46439;51.164;13.572;2022-08-21T06:10:53;100059.91;;;20.21;100.00
60611;BME280;46439;51.164;13.572;2022-08-21T06:13:23;100060.55;;;20.21;100.00
60611;BME280;46439;51.164;13.572;2022-08-21T06:16:02;100056.87;;;20.23;100.00
60611;BME280;46439;51.164;13.572;2022-08-21T06:18:31;100052.23;;;20.26;100.00
60611;BME280;46439;51.164;13.572;2022-08-21T06:21:00;100051.85;;;20.29;100.00
60611;BME280;46439;51.164;13.572;2022-08-21T06:23:29;100054.47;;;20.33;100.00
60611;BME280;46439;51.164;13.572;2022-08-21T06:25:57;100060.04;;;20.29;100.00
60611;BME280;46439;51.164;13.572;2022-08-21T06:28:26;100065.71;;;20.31;100.00
60611;BME280;46439;51.164;13.572;2022-08-21T06:30:55;100069.21;;;20.30;100.00
60611;BME280;46439;51.164;13.572;2022-08-21T06:33:23;100070.73;;;20.32;100.00
60611;BME280;46439;51.164;13.572;2022-08-21T06:35:52;100067.46;;;20.35;100.00
60611;BME280;46439;51.164;13.572;2022-08-21T06:38:20;100069.09;;;20.35;100.00
60611;BME280;46439;51.164;13.572;2022-08-21T06:40:49;100067.35;;;20.35;100.00
60611;BME280;46439;51.164;13.572;2022-08-21T06:43:18;100066.16;;;20.38;100.00
60611;BME280;46439;51.164;13.572;2022-08-21T06:45:47;100065.81;;;20.43;100.00
60611;BME280;46439;51.164;13.572;2022-08-21T06:48:15;100064.52;;;20.46;100.00
60611;BME280;46439;51.164;13.572;2022-08-21T06:50:44;100063.20;;;20.46;100.00
60611;BME280;46439;51.164;13.572;2022-08-21T06:53:16;100062.55;;;20.44;100.00
60611;BME280;46439;51.164;13.572;2022-08-21T06:55:45;100061.67;;;20.45;100.00
60611;BME280;46439;51.164;13.572;2022-08-21T06:58:15;100064.10;;;20.48;100.00
60611;BME280;46439;51.164;13.572;2022-08-21T07:00:46;100060.46;;;20.49;100.00
60611;BME280;46439;51.164;13.572;2022-08-21T07:03:18;100059.80;;;20.53;100.00
60611;BME280;46439;51.164;13.572;2022-08-21T07:05:46;100060.74;;;20.55;100.00
60611;BME280;46439;51.164;13.572;2022-08-21T07:08:15;100057.60;;;20.57;100.00
60611;BME280;46439;51.164;13.572;2022-08-21T07:10:45;100061.11;;;20.61;100.00
60611;BME280;46439;51.164;13.572;2022-08-21T07:13:14;100065.52;;;20.65;100.00
60611;BME280;46439;51.164;13.572;2022-08-21T07:15:43;100065.98;;;20.65;100.00
60611;BME280;46439;51.164;13.572;2022-08-21T07:18:13;100069.86;;;20.64;100.00
60611;BME280;46439;51.164;13.572;2022-08-21T07:20:42;100069.73;;;20.61;100.00
60611;BME280;46439;51.164;13.572;2022-08-21T07:23:15;100069.98;;;20.59;100.00
60611;BME280;46439;51.164;13.572;2022-08-21T07:25:50;100068.65;;;20.62;100.00
60611;BME280;46439;51.164;13.572;2022-08-21T07:28:22;100068.05;;;20.67;100.00
60611;BME280;46439;51.164;13.572;2022-08-21T07:30:54;100069.10;;;20.70;100.00
60611;BME280;46439;51.164;13.572;2022-08-21T07:33:25;100073.33;;;20.73;100.00
60611;BME280;46439;51.164;13.572;2022-08-21T07:35:55;100076.61;;;20.73;100.00
60611;BME280;46439;51.164;13.572;2022-08-21T07:38:23;100077.45;;;20.76;100.00
60611;BME280;46439;51.164;13.572;2022-08-21T07:40:54;100074.83;;;20.74;100.00
60611;BME280;46439;51.164;13.572;2022-08-21T07:43:23;100073.24;;;20.69;100.00
60611;BME280;46439;51.164;13.572;2022-08-21T07:45:52;100074.08;;;20.64;100.00
60611;BME280;46439;51.164;13.572;2022-08-21T07:48:22;100070.81;;;20.59;100.00
60611;BME280;46439;51.164;13.572;2022-08-21T07:50:51;100068.27;;;20.60;100.00
60611;BME280;46439;51.164;13.572;2022-08-21T07:53:21;100071.77;;;20.58;100.00
60611;BME280;46439;51.164;13.572;2022-08-21T07:55:50;100072.30;;;20.57;100.00
60611;BME280;46439;51.164;13.572;2022-08-21T07:58:20;100067.11;;;20.55;100.00
60611;BME280;46439;51.164;13.572;2022-08-21T08:00:50;100068.88;;;20.56;100.00
60611;BME280;46439;51.164;13.572;2022-08-21T08:03:21;100073.15;;;20.60;100.00
60611;BME280;46439;51.164;13.572;2022-08-21T08:05:50;100075.19;;;20.62;100.00
60611;BME280;46439;51.164;13.572;2022-08-21T08:08:19;100072.95;;;20.63;100.00
60611;BME280;46439;51.164;13.572;2022-08-21T08:10:48;100075.16;;;20.66;100.00
60611;BME280;46439;51.164;13.572;2022-08-21T08:13:19;100077.77;;;20.67;100.00
60611;BME280;46439;51.164;13.572;2022-08-21T08:15:47;100081.62;;;20.70;100.00
60611;BME280;46439;51.164;13.572;2022-08-21T08:18:16;100079.13;;;20.78;100.00
60611;BME280;46439;51.164;13.572;2022-08-21T08:20:45;100088.30;;;20.84;100.00
60611;BME280;46439;51.164;13.572;2022-08-21T08:23:14;100086.20;;;20.85;100.00
60611;BME280;46439;51.164;13.572;2022-08-21T08:25:43;100089.17;;;20.88;100.00
60611;BME280;46439;51.164;13.572;2022-08-21T08:28:12;100089.82;;;20.94;100.00
60611;BME280;46439;51.164;13.572;2022-08-21T08:30:42;100088.05;;;20.98;100.00
60611;BME280;46439;51.164;13.572;2022-08-21T08:33:11;100095.44;;;21.00;100.00
60611;BME280;46439;51.164;13.572;2022-08-21T08:35:39;100097.38;;;21.04;100.00
60611;BME280;46439;51.164;13.572;2022-08-21T08:38:08;100097.27;;;21.07;100.00
60611;BME280;46439;51.164;13.572;2022-08-21T08:40:41;100101.49;;;21.10;100.00
60611;BME280;46439;51.164;13.572;2022-08-21T08:43:14;100097.59;;;21.11;100.00
60611;BME280;46439;51.164;13.572;2022-08-21T08:45:48;100100.61;;;21.18;100.00
60611;BME280;46439;51.164;13.572;2022-08-21T08:48:34;100103.59;;;21.24;100.00
60611;BME280;46439;51.164;13.572;2022-08-21T08:51:08;100107.73;;;21.34;100.00
60611;BME280;46439;51.164;13.572;2022-08-21T08:53:45;100109.65;;;21.41;100.00
60611;BME280;46439;51.164;13.572;2022-08-21T08:56:17;100109.61;;;21.41;100.00
60611;BME280;46439;51.164;13.572;2022-08-21T08:58:52;100107.64;;;21.43;100.00
60611;BME280;46439;51.164;13.572;2022-08-21T09:01:21;100106.13;;;21.43;100.00
60611;BME280;46439;51.164;13.572;2022-08-21T09:03:56;100103.92;;;21.48;100.00
60611;BME280;46439;51.164;13.572;2022-08-21T09:06:36;100101.88;;;21.53;100.00
60611;BME280;46439;51.164;13.572;2022-08-21T09:09:14;100102.55;;;21.57;100.00
60611;BME280;46439;51.164;13.572;2022-08-21T09:11:51;100106.52;;;21.63;100.00
60611;BME280;46439;51.164;13.572;2022-08-21T09:14:26;100103.66;;;21.66;100.00
60611;BME280;46439;51.164;13.572;2022-08-21T09:17:08;100105.47;;;21.67;100.00
60611;BME280;46439;51.164;13.572;2022-08-21T09:19:56;100100.02;;;21.71;100.00
60611;BME280;46439;51.164;13.572;2022-08-21T09:22:46;100097.90;;;21.74;100.00
60611;BME280;46439;51.164;13.572;2022-08-21T09:25:23;100094.41;;;21.78;100.00
60611;BME280;46439;51.164;13.572;2022-08-21T09:27:52;100092.16;;;21.82;100.00
60611;BME280;46439;51.164;13.572;2022-08-21T09:30:25;100092.95;;;21.86;100.00
60611;BME280;46439;51.164;13.572;2022-08-21T09:32:54;100089.16;;;21.87;100.00
60611;BME280;46439;51.164;13.572;2022-08-21T09:35:24;100084.94;;;21.87;100.00
60611;BME280;46439;51.164;13.572;2022-08-21T09:37:54;100088.21;;;21.89;100.00
60611;BME280;46439;51.164;13.572;2022-08-21T09:40:36;100083.86;;;21.89;100.00
60611;BME280;46439;51.164;13.572;2022-08-21T09:43:06;100083.39;;;21.87;100.00
60611;BME280;46439;51.164;13.572;2022-08-21T09:45:41;100078.66;;;21.91;100.00
60611;BME280;46439;51.164;13.572;2022-08-21T09:48:17;100075.23;;;21.96;100.00
60611;BME280;46439;51.164;13.572;2022-08-21T09:50:48;100076.87;;;21.98;100.00
60611;BME280;46439;51.164;13.572;2022-08-21T09:53:20;100075.33;;;22.02;100.00
60611;BME280;46439;51.164;13.572;2022-08-21T09:55:54;100074.85;;;22.04;100.00
60611;BME280;46439;51.164;13.572;2022-08-21T09:58:44;100076.09;;;22.09;100.00
60611;BME280;46439;51.164;13.572;2022-08-21T10:01:18;100078.15;;;22.07;100.00
60611;BME280;46439;51.164;13.572;2022-08-21T10:03:47;100074.40;;;22.10;100.00
60611;BME280;46439;51.164;13.572;2022-08-21T10:06:26;100079.88;;;22.13;100.00
60611;BME280;46439;51.164;13.572;2022-08-21T10:09:05;100079.23;;;22.13;100.00
60611;BME280;46439;51.164;13.572;2022-08-21T10:11:35;100076.08;;;22.16;100.00
60611;BME280;46439;51.164;13.572;2022-08-21T10:14:13;100079.80;;;22.23;100.00
60611;BME280;46439;51.164;13.572;2022-08-21T10:16:51;100076.74;;;22.24;100.00
60611;BME280;46439;51.164;13.572;2022-08-21T10:19:29;100072.27;;;22.22;100.00
60611;BME280;46439;51.164;13.572;2022-08-21T10:22:06;100071.44;;;22.22;100.00
60611;BME280;46439;51.164;13.572;2022-08-21T10:24:49;100064.88;;;22.27;100.00
60611;BME280;46439;51.164;13.572;2022-08-21T10:27:25;100063.43;;;22.29;100.00
60611;BME280;46439;51.164;13.572;2022-08-21T10:30:01;100062.92;;;22.28;100.00
60611;BME280;46439;51.164;13.572;2022-08-21T10:32:47;100069.67;;;22.31;100.00
60611;BME280;46439;51.164;13.572;2022-08-21T10:35:24;100072.31;;;22.21;100.00
60611;BME280;46439;51.164;13.572;2022-08-21T10:38:23;100074.17;;;22.17;99.85
60611;BME280;46439;51.164;13.572;2022-08-21T10:41:02;100077.38;;;22.14;99.90
60611;BME280;46439;51.164;13.572;2022-08-21T10:43:35;100077.77;;;22.14;99.85
60611;BME280;46439;51.164;13.572;2022-08-21T10:46:14;100079.05;;;22.20;99.87
60611;BME280;46439;51.164;13.572;2022-08-21T10:48:53;100077.47;;;22.26;99.96
60611;BME280;46439;51.164;13.572;2022-08-21T10:51:26;100079.81;;;22.28;99.95
60611;BME280;46439;51.164;13.572;2022-08-21T10:54:02;100082.70;;;22.35;99.94
60611;BME280;46439;51.164;13.572;2022-08-21T10:56:36;100079.77;;;22.38;99.98
60611;BME280;46439;51.164;13.572;2022-08-21T10:59:19;100075.65;;;22.38;99.90
60611;BME280;46439;51.164;13.572;2022-08-21T11:01:54;100073.98;;;22.48;99.91
60611;BME280;46439;51.164;13.572;2022-08-21T11:04:30;100075.71;;;22.55;99.95
60611;BME280;46439;51.164;13.572;2022-08-21T11:07:03;100076.84;;;22.61;99.96
60611;BME280;46439;51.164;13.572;2022-08-21T11:09:34;100075.69;;;22.66;99.99
60611;BME280;46439;51.164;13.572;2022-08-21T11:12:09;100071.90;;;22.67;99.84
60611;BME280;46439;51.164;13.572;2022-08-21T11:14:49;100073.96;;;22.73;99.91
60611;BME280;46439;51.164;13.572;2022-08-21T11:17:24;100071.30;;;22.77;99.83
60611;BME280;46439;51.164;13.572;2022-08-21T11:20:03;100073.69;;;22.82;99.92
60611;BME280;46439;51.164;13.572;2022-08-21T11:22:40;100073.65;;;22.88;99.98
60611;BME280;46439;51.164;13.572;2022-08-21T11:25:19;100072.98;;;22.93;99.64
60611;BME280;46439;51.164;13.572;2022-08-21T11:27:52;100075.74;;;22.94;99.43
60611;BME280;46439;51.164;13.572;2022-08-21T11:30:26;100071.75;;;22.96;99.28
60611;BME280;46439;51.164;13.572;2022-08-21T11:33:13;100071.55;;;23.01;99.38
60611;BME280;46439;51.164;13.572;2022-08-21T11:35:50;100071.77;;;23.09;99.48
60611;BME280;46439;51.164;13.572;2022-08-21T11:38:32;100071.24;;;23.17;99.41
60611;BME280;46439;51.164;13.572;2022-08-21T11:41:13;100071.01;;;23.26;99.44
60611;BME280;46439;51.164;13.572;2022-08-21T11:43:47;100070.00;;;23.36;99.54
60611;BME280;46439;51.164;13.572;2022-08-21T11:46:18;100072.29;;;23.40;99.62
60611;BME280;46439;51.164;13.572;2022-08-21T11:48:59;100069.98;;;23.41;99.43
60611;BME280;46439;51.164;13.572;2022-08-21T11:51:32;100069.64;;;23.45;99.13
60611;BME280;46439;51.164;13.572;2022-08-21T11:54:05;100067.81;;;23.49;99.27
60611;BME280;46439;51.164;13.572;2022-08-21T11:56:37;100066.36;;;23.41;98.85
60611;BME280;46439;51.164;13.572;2022-08-21T11:59:13;100064.59;;;23.41;98.69
60611;BME280;46439;51.164;13.572;2022-08-21T12:01:46;100061.55;;;23.46;98.75
60611;BME280;46439;51.164;13.572;2022-08-21T12:04:24;100059.05;;;23.50;98.73
60611;BME280;46439;51.164;13.572;2022-08-21T12:06:54;100056.90;;;23.50;98.70
60611;BME280;46439;51.164;13.572;2022-08-21T12:09:34;100056.39;;;23.48;98.36
60611;BME280;46439;51.164;13.572;2022-08-21T12:12:10;100058.86;;;23.46;98.18
60611;BME280;46439;51.164;13.572;2022-08-21T12:14:42;100055.74;;;23.45;97.98
60611;BME280;46439;51.164;13.572;2022-08-21T12:17:20;100051.62;;;23.50;98.23
60611;BME280;46439;51.164;13.572;2022-08-21T12:20:02;100049.63;;;23.57;98.11
60611;BME280;46439;51.164;13.572;2022-08-21T12:22:47;100048.15;;;23.71;98.17
60611;BME280;46439;51.164;13.572;2022-08-21T12:25:20;100048.33;;;23.83;98.42
60611;BME280;46439;51.164;13.572;2022-08-21T12:27:52;100045.75;;;23.93;98.45
60611;BME280;46439;51.164;13.572;2022-08-21T12:30:33;100049.56;;;24.01;98.31
60611;BME280;46439;51.164;13.572;2022-08-21T12:33:04;100046.72;;;24.08;98.27
60611;BME280;46439;51.164;13.572;2022-08-21T12:35:38;100043.68;;;24.14;98.15
60611;BME280;46439;51.164;13.572;2022-08-21T12:38:12;100047.89;;;24.17;97.92
60611;BME280;46439;51.164;13.572;2022-08-21T12:40:46;100046.67;;;24.17;97.69
60611;BME280;46439;51.164;13.572;2022-08-21T12:43:18;100048.94;;;24.16;97.62
60611;BME280;46439;51.164;13.572;2022-08-21T12:45:49;100043.08;;;24.14;97.45
60611;BME280;46439;51.164;13.572;2022-08-21T12:48:23;100044.94;;;24.13;97.25
60611;BME280;46439;51.164;13.572;2022-08-21T12:50:56;100044.85;;;24.17;97.29
60611;BME280;46439;51.164;13.572;2022-08-21T12:53:29;100040.61;;;24.18;97.11
60611;BME280;46439;51.164;13.572;2022-08-21T12:56:02;100038.41;;;24.20;96.90
60611;BME280;46439;51.164;13.572;2022-08-21T12:58:32;100040.19;;;24.18;96.95